sensor_id;sensor_type;location;lat;lon;timestamp;temperature;humidity
56076;DHT22;41951;49.022;12.066;2023-11-21T00:01:40;7.70;99.90
56076;DHT22;41951;49.022;12.066;2023-11-21T00:04:05;7.70;99.90
56076;DHT22;41951;49.022;12.066;2023-11-21T00:06:32;7.70;99.90
56076;DHT22;41951;49.022;12.066;2023-11-21T00:08:58;7.80;99.90
56076;DHT22;41951;49.022;12.066;2023-11-21T00:11:24;7.80;99.90
56076;DHT22;41951;49.022;12.066;2023-11-21T00:13:50;7.80;99.90
56076;DHT22;41951;49.022;12.066;2023-11-21T00:16:16;7.80;99.90
56076;DHT22;41951;49.022;12.066;2023-11-21T00:18:41;7.80;99.90
56076;DHT22;41951;49.022;12.066;2023-11-21T00:21:08;7.80;99.90
56076;DHT22;41951;49.022;12.066;2023-11-21T00:23:34;7.80;99.90
56076;DHT22;41951;49.022;12.066;2023-11-21T00:26:00;7.80;99.90
56076;DHT22;41951;49.022;12.066;2023-11-21T00:28:26;7.80;99.90
56076;DHT22;41951;49.022;12.066;2023-11-21T00:30:52;7.80;99.90
56076;DHT22;41951;49.022;12.066;2023-11-21T00:33:17;7.80;99.90
56076;DHT22;41951;49.022;12.066;2023-11-21T00:35:43;7.80;99.90
56076;DHT22;41951;49.022;12.066;2023-11-21T00:38:08;7.80;99.90
56076;DHT22;41951;49.022;12.066;2023-11-21T00:40:34;7.80;99.90
56076;DHT22;41951;49.022;12.066;2023-11-21T00:43:00;7.80;99.90
56076;DHT22;41951;49.022;12.066;2023-11-21T00:45:26;7.80;99.90
56076;DHT22;41951;49.022;12.066;2023-11-21T00:47:51;7.80;99.90
56076;DHT22;41951;49.022;12.066;2023-11-21T00:50:17;7.80;99.90
56076;DHT22;41951;49.022;12.066;2023-11-21T00:52:42;7.80;99.90
56076;DHT22;41951;49.022;12.066;2023-11-21T00:55:08;7.80;99.90
56076;DHT22;41951;49.022;12.066;2023-11-21T00:57:35;7.80;99.90
56076;DHT22;41951;49.022;12.066;2023-11-21T01:00:00;7.80;99.90
56076;DHT22;41951;49.022;12.066;2023-11-21T01:02:26;7.80;99.90
56076;DHT22;41951;49.022;12.066;2023-11-21T01:04:52;7.80;99.90
56076;DHT22;41951;49.022;12.066;2023-11-21T01:07:17;7.80;99.90
56076;DHT22;41951;49.022;12.066;2023-11-21T01:09:46;7.80;99.90
56076;DHT22;41951;49.022;12.066;2023-11-21T01:12:11;7.80;99.90
56076;DHT22;41951;49.022;12.066;2023-11-21T01:14:37;7.80;99.90
56076;DHT22;41951;49.022;12.066;2023-11-21T01:17:02;7.90;99.90
56076;DHT22;41951;49.022;12.066;2023-11-21T01:19:30;7.80;99.90
56076;DHT22;41951;49.022;12.066;2023-11-21T01:21:55;7.90;99.90
56076;DHT22;41951;49.022;12.066;2023-11-21T01:24:23;7.80;99.90
56076;DHT22;41951;49.022;12.066;2023-11-21T01:26:49;7.80;99.90
56076;DHT22;41951;49.022;12.066;2023-11-21T01:29:14;7.70;99.90
56076;DHT22;41951;49.022;12.066;2023-11-21T01:31:40;7.70;99.90
56076;DHT22;41951;49.022;12.066;2023-11-21T01:34:06;7.70;99.90
56076;DHT22;41951;49.022;12.066;2023-11-21T01:36:32;7.70;99.90
56076;DHT22;41951;49.022;12.066;2023-11-21T01:38:58;7.70;99.90
56076;DHT22;41951;49.022;12.066;2023-11-21T01:41:27;7.80;99.90
56076;DHT22;41951;49.022;12.066;2023-11-21T01:43:56;7.80;99.90
56076;DHT22;41951;49.022;12.066;2023-11-21T01:46:23;7.80;99.90
56076;DHT22;41951;49.022;12.066;2023-11-21T01:48:49;7.70;99.90
56076;DHT22;41951;49.022;12.066;2023-11-21T01:51:15;7.70;99.90
56076;DHT22;41951;49.022;12.066;2023-11-21T01:53:40;7.60;99.90
56076;DHT22;41951;49.022;12.066;2023-11-21T01:56:07;7.60;99.90
56076;DHT22;41951;49.022;12.066;2023-11-21T01:58:34;7.50;99.90
56076;DHT22;41951;49.022;12.066;2023-11-21T02:00:59;7.50;99.90
56076;DHT22;41951;49.022;12.066;2023-11-21T02:03:25;7.50;99.90
56076;DHT22;41951;49.022;12.066;2023-11-21T02:05:52;7.40;99.90
56076;DHT22;41951;49.022;12.066;2023-11-21T02:08:19;7.40;99.90
56076;DHT22;41951;49.022;12.066;2023-11-21T02:10:45;7.40;99.90
56076;DHT22;41951;49.022;12.066;2023-11-21T02:13:11;7.40;99.90
56076;DHT22;41951;49.022;12.066;2023-11-21T02:15:37;7.40;99.90
56076;DHT22;41951;49.022;12.066;2023-11-21T02:18:04;7.40;99.90
56076;DHT22;41951;49.022;12.066;2023-11-21T02:20:31;7.40;99.90
56076;DHT22;41951;49.022;12.066;2023-11-21T02:23:00;7.40;99.90
56076;DHT22;41951;49.022;12.066;2023-11-21T02:25:29;7.40;99.90
56076;DHT22;41951;49.022;12.066;2023-11-21T02:27:56;7.50;99.90
56076;DHT22;41951;49.022;12.066;2023-11-21T02:30:22;7.50;99.90
56076;DHT22;41951;49.022;12.066;2023-11-21T02:32:48;7.50;99.90
56076;DHT22;41951;49.022;12.066;2023-11-21T02:35:14;7.50;99.90
56076;DHT22;41951;49.022;12.066;2023-11-21T02:37:41;7.60;99.90
56076;DHT22;41951;49.022;12.066;2023-11-21T02:40:11;7.50;99.90
56076;DHT22;41951;49.022;12.066;2023-11-21T02:42:43;7.50;99.90
56076;DHT22;41951;49.022;12.066;2023-11-21T02:45:09;7.50;99.90
56076;DHT22;41951;49.022;12.066;2023-11-21T02:47:38;7.50;99.90
56076;DHT22;41951;49.022;12.066;2023-11-21T02:50:04;7.50;99.90
56076;DHT22;41951;49.022;12.066;2023-11-21T02:52:29;7.50;99.90
56076;DHT22;41951;49.022;12.066;2023-11-21T02:54:55;7.50;99.90
56076;DHT22;41951;49.022;12.066;2023-11-21T02:57:21;7.60;99.90
56076;DHT22;41951;49.022;12.066;2023-11-21T02:59:46;7.60;99.90
56076;DHT22;41951;49.022;12.066;2023-11-21T03:02:12;7.60;99.90
56076;DHT22;41951;49.022;12.066;2023-11-21T03:04:37;7.60;99.90
56076;DHT22;41951;49.022;12.066;2023-11-21T03:07:03;7.60;99.90
56076;DHT22;41951;49.022;12.066;2023-11-21T03:09:30;7.50;99.90
56076;DHT22;41951;49.022;12.066;2023-11-21T03:11:56;7.50;99.90
56076;DHT22;41951;49.022;12.066;2023-11-21T03:14:21;7.60;99.90
56076;DHT22;41951;49.022;12.066;2023-11-21T03:16:48;7.50;99.90
56076;DHT22;41951;49.022;12.066;2023-11-21T03:19:14;7.50;99.90
56076;DHT22;41951;49.022;12.066;2023-11-21T03:21:40;7.50;99.90
56076;DHT22;41951;49.022;12.066;2023-11-21T03:24:06;7.50;99.90
56076;DHT22;41951;49.022;12.066;2023-11-21T03:26:32;7.50;99.90
56076;DHT22;41951;49.022;12.066;2023-11-21T03:28:58;7.50;99.90
56076;DHT22;41951;49.022;12.066;2023-11-21T03:31:24;7.50;99.90
56076;DHT22;41951;49.022;12.066;2023-11-21T03:33:49;7.50;99.90
56076;DHT22;41951;49.022;12.066;2023-11-21T03:36:15;7.50;99.90
56076;DHT22;41951;49.022;12.066;2023-11-21T03:38:41;7.50;99.90
56076;DHT22;41951;49.022;12.066;2023-11-21T03:41:07;7.50;99.90
56076;DHT22;41951;49.022;12.066;2023-11-21T03:43:36;7.50;99.90
56076;DHT22;41951;49.022;12.066;2023-11-21T03:46:01;7.50;99.90
56076;DHT22;41951;49.022;12.066;2023-11-21T03:48:27;7.50;99.90
56076;DHT22;41951;49.022;12.066;2023-11-21T03:50:53;7.50;99.90
56076;DHT22;41951;49.022;12.066;2023-11-21T03:53:18;7.50;99.90
56076;DHT22;41951;49.022;12.066;2023-11-21T03:55:44;7.60;99.90
56076;DHT22;41951;49.022;12.066;2023-11-21T03:58:10;7.60;99.90
56076;DHT22;41951;49.022;12.066;2023-11-21T04:00:35;7.60;99.90
56076;DHT22;41951;49.022;12.066;2023-11-21T04:03:01;7.60;99.90
56076;DHT22;41951;49.022;12.066;2023-11-21T04:05:26;7.60;99.90
56076;DHT22;41951;49.022;12.066;2023-11-21T04:07:52;7.60;99.90
56076;DHT22;41951;49.022;12.066;2023-11-21T04:10:18;7.60;99.90
56076;DHT22;41951;49.022;12.066;2023-11-21T04:12:43;7.60;99.90
56076;DHT22;41951;49.022;12.066;2023-11-21T04:15:11;7.60;99.90
56076;DHT22;41951;49.022;12.066;2023-11-21T04:17:37;7.60;99.90
56076;DHT22;41951;49.022;12.066;2023-11-21T04:20:05;7.50;99.90
56076;DHT22;41951;49.022;12.066;2023-11-21T04:22:36;7.50;99.90
56076;DHT22;41951;49.022;12.066;2023-11-21T04:25:01;7.50;99.90
56076;DHT22;41951;49.022;12.066;2023-11-21T04:27:27;7.50;99.90
56076;DHT22;41951;49.022;12.066;2023-11-21T04:29:53;7.50;99.90
56076;DHT22;41951;49.022;12.066;2023-11-21T04:32:18;7.50;99.90
56076;DHT22;41951;49.022;12.066;2023-11-21T04:34:44;7.40;99.90
56076;DHT22;41951;49.022;12.066;2023-11-21T04:37:09;7.40;99.90
56076;DHT22;41951;49.022;12.066;2023-11-21T04:39:36;7.50;99.90
56076;DHT22;41951;49.022;12.066;2023-11-21T04:42:01;7.50;99.90
56076;DHT22;41951;49.022;12.066;2023-11-21T04:44:27;7.40;99.90
56076;DHT22;41951;49.022;12.066;2023-11-21T04:46:53;7.40;99.90
56076;DHT22;41951;49.022;12.066;2023-11-21T04:49:18;7.40;99.90
56076;DHT22;41951;49.022;12.066;2023-11-21T04:51:44;7.40;99.90
56076;DHT22;41951;49.022;12.066;2023-11-21T04:54:09;7.40;99.90
56076;DHT22;41951;49.022;12.066;2023-11-21T04:56:35;7.50;99.90
56076;DHT22;41951;49.022;12.066;2023-11-21T04:59:01;7.40;99.90
56076;DHT22;41951;49.022;12.066;2023-11-21T05:01:26;7.50;99.90
56076;DHT22;41951;49.022;12.066;2023-11-21T05:03:52;7.50;99.90
56076;DHT22;41951;49.022;12.066;2023-11-21T05:06:18;7.50;99.90
56076;DHT22;41951;49.022;12.066;2023-11-21T05:08:43;7.40;99.90
56076;DHT22;41951;49.022;12.066;2023-11-21T05:11:09;7.40;99.90
56076;DHT22;41951;49.022;12.066;2023-11-21T05:13:36;7.40;99.90
56076;DHT22;41951;49.022;12.066;2023-11-21T05:16:02;7.40;99.90
56076;DHT22;41951;49.022;12.066;2023-11-21T05:18:29;7.40;99.90
56076;DHT22;41951;49.022;12.066;2023-11-21T05:20:55;7.40;99.90
56076;DHT22;41951;49.022;12.066;2023-11-21T05:23:21;7.40;99.90
56076;DHT22;41951;49.022;12.066;2023-11-21T05:25:47;7.40;99.90
56076;DHT22;41951;49.022;12.066;2023-11-21T05:28:13;7.40;99.90
56076;DHT22;41951;49.022;12.066;2023-11-21T05:30:38;7.30;99.90
56076;DHT22;41951;49.022;12.066;2023-11-21T05:33:05;7.40;99.90
56076;DHT22;41951;49.022;12.066;2023-11-21T05:35:30;7.30;99.90
56076;DHT22;41951;49.022;12.066;2023-11-21T05:37:56;7.30;99.90
56076;DHT22;41951;49.022;12.066;2023-11-21T05:40:22;7.40;99.90
56076;DHT22;41951;49.022;12.066;2023-11-21T05:42:48;7.30;99.90
56076;DHT22;41951;49.022;12.066;2023-11-21T05:45:14;7.30;99.90
56076;DHT22;41951;49.022;12.066;2023-11-21T05:47:42;7.30;99.90
56076;DHT22;41951;49.022;12.066;2023-11-21T05:50:12;7.30;99.90
56076;DHT22;41951;49.022;12.066;2023-11-21T05:52:40;7.30;99.90
56076;DHT22;41951;49.022;12.066;2023-11-21T05:55:06;7.30;99.90
56076;DHT22;41951;49.022;12.066;2023-11-21T05:57:38;7.30;99.90
56076;DHT22;41951;49.022;12.066;2023-11-21T06:00:05;7.30;99.90
56076;DHT22;41951;49.022;12.066;2023-11-21T06:02:38;7.30;99.90
56076;DHT22;41951;49.022;12.066;2023-11-21T06:05:06;7.30;99.90
56076;DHT22;41951;49.022;12.066;2023-11-21T06:07:31;7.20;99.90
56076;DHT22;41951;49.022;12.066;2023-11-21T06:09:57;7.20;99.90
56076;DHT22;41951;49.022;12.066;2023-11-21T06:12:22;7.20;99.90
56076;DHT22;41951;49.022;12.066;2023-11-21T06:14:48;7.30;99.90
56076;DHT22;41951;49.022;12.066;2023-11-21T06:17:14;7.20;99.90
56076;DHT22;41951;49.022;12.066;2023-11-21T06:19:39;7.30;99.90
56076;DHT22;41951;49.022;12.066;2023-11-21T06:22:05;7.20;99.90
56076;DHT22;41951;49.022;12.066;2023-11-21T06:24:31;7.20;99.90
56076;DHT22;41951;49.022;12.066;2023-11-21T06:26:57;7.20;99.90
56076;DHT22;41951;49.022;12.066;2023-11-21T06:29:22;7.20;99.90
56076;DHT22;41951;49.022;12.066;2023-11-21T06:31:48;7.30;99.90
56076;DHT22;41951;49.022;12.066;2023-11-21T06:34:14;7.20;99.90
56076;DHT22;41951;49.022;12.066;2023-11-21T06:36:40;7.20;99.90
56076;DHT22;41951;49.022;12.066;2023-11-21T06:39:05;7.20;99.90
56076;DHT22;41951;49.022;12.066;2023-11-21T06:41:33;7.20;99.90
56076;DHT22;41951;49.022;12.066;2023-11-21T06:43:59;7.30;99.90
56076;DHT22;41951;49.022;12.066;2023-11-21T06:46:24;7.30;99.90
56076;DHT22;41951;49.022;12.066;2023-11-21T06:48:50;7.30;99.90
56076;DHT22;41951;49.022;12.066;2023-11-21T06:51:16;7.30;99.90
56076;DHT22;41951;49.022;12.066;2023-11-21T06:53:42;7.30;99.90
56076;DHT22;41951;49.022;12.066;2023-11-21T06:56:19;7.30;99.90
56076;DHT22;41951;49.022;12.066;2023-11-21T06:58:46;7.30;99.90
56076;DHT22;41951;49.022;12.066;2023-11-21T07:01:13;7.30;99.90
56076;DHT22;41951;49.022;12.066;2023-11-21T07:03:39;7.30;99.90
56076;DHT22;41951;49.022;12.066;2023-11-21T07:06:05;7.30;99.90
56076;DHT22;41951;49.022;12.066;2023-11-21T07:08:31;7.40;99.90
56076;DHT22;41951;49.022;12.066;2023-11-21T07:10:56;7.30;99.90
56076;DHT22;41951;49.022;12.066;2023-11-21T07:13:22;7.40;99.90
56076;DHT22;41951;49.022;12.066;2023-11-21T07:15:48;7.40;99.90
56076;DHT22;41951;49.022;12.066;2023-11-21T07:18:14;7.50;99.90
56076;DHT22;41951;49.022;12.066;2023-11-21T07:20:39;7.50;99.90
56076;DHT22;41951;49.022;12.066;2023-11-21T07:23:05;7.50;99.90
56076;DHT22;41951;49.022;12.066;2023-11-21T07:25:31;7.50;99.90
56076;DHT22;41951;49.022;12.066;2023-11-21T07:27:59;7.60;99.90
56076;DHT22;41951;49.022;12.066;2023-11-21T07:30:24;7.60;99.90
56076;DHT22;41951;49.022;12.066;2023-11-21T07:32:50;7.60;99.90
56076;DHT22;41951;49.022;12.066;2023-11-21T07:35:15;7.70;99.90
56076;DHT22;41951;49.022;12.066;2023-11-21T07:37:41;7.70;99.90
56076;DHT22;41951;49.022;12.066;2023-11-21T07:40:08;7.70;99.90
56076;DHT22;41951;49.022;12.066;2023-11-21T07:42:37;7.70;99.90
56076;DHT22;41951;49.022;12.066;2023-11-21T07:45:03;7.70;99.90
56076;DHT22;41951;49.022;12.066;2023-11-21T07:47:28;7.70;99.90
56076;DHT22;41951;49.022;12.066;2023-11-21T07:49:54;7.70;99.90
56076;DHT22;41951;49.022;12.066;2023-11-21T07:52:22;7.70;99.90
56076;DHT22;41951;49.022;12.066;2023-11-21T07:54:47;7.70;99.90
56076;DHT22;41951;49.022;12.066;2023-11-21T07:57:13;7.70;99.90
56076;DHT22;41951;49.022;12.066;2023-11-21T07:59:39;7.70;99.90
56076;DHT22;41951;49.022;12.066;2023-11-21T08:02:06;7.70;99.90
56076;DHT22;41951;49.022;12.066;2023-11-21T08:04:32;7.80;99.90
56076;DHT22;41951;49.022;12.066;2023-11-21T08:06:58;7.80;99.90
56076;DHT22;41951;49.022;12.066;2023-11-21T08:09:23;7.80;99.90
56076;DHT22;41951;49.022;12.066;2023-11-21T08:11:49;7.80;99.90
56076;DHT22;41951;49.022;12.066;2023-11-21T08:14:15;7.80;99.90
56076;DHT22;41951;49.022;12.066;2023-11-21T08:16:41;7.90;99.90
56076;DHT22;41951;49.022;12.066;2023-11-21T08:19:06;8.00;99.90
56076;DHT22;41951;49.022;12.066;2023-11-21T08:21:34;8.00;99.90
56076;DHT22;41951;49.022;12.066;2023-11-21T08:23:59;8.00;99.90
56076;DHT22;41951;49.022;12.066;2023-11-21T08:26:25;8.00;99.90
56076;DHT22;41951;49.022;12.066;2023-11-21T08:28:51;8.00;99.90
56076;DHT22;41951;49.022;12.066;2023-11-21T08:31:28;7.90;99.90
56076;DHT22;41951;49.022;12.066;2023-11-21T08:33:54;7.80;99.90
56076;DHT22;41951;49.022;12.066;2023-11-21T08:36:21;7.90;99.90
56076;DHT22;41951;49.022;12.066;2023-11-21T08:38:49;7.80;99.90
56076;DHT22;41951;49.022;12.066;2023-11-21T08:41:17;7.90;99.90
56076;DHT22;41951;49.022;12.066;2023-11-21T08:43:43;7.90;99.90
56076;DHT22;41951;49.022;12.066;2023-11-21T08:46:10;8.00;99.90
56076;DHT22;41951;49.022;12.066;2023-11-21T08:48:36;8.00;99.90
56076;DHT22;41951;49.022;12.066;2023-11-21T08:51:03;8.00;99.90
56076;DHT22;41951;49.022;12.066;2023-11-21T08:53:29;8.10;99.90
56076;DHT22;41951;49.022;12.066;2023-11-21T08:58:38;8.10;99.90
56076;DHT22;41951;49.022;12.066;2023-11-21T09:01:04;8.20;99.90
56076;DHT22;41951;49.022;12.066;2023-11-21T09:03:31;8.20;99.90
56076;DHT22;41951;49.022;12.066;2023-11-21T09:05:59;8.30;99.90
56076;DHT22;41951;49.022;12.066;2023-11-21T09:08:25;8.30;99.90
56076;DHT22;41951;49.022;12.066;2023-11-21T09:10:50;8.40;99.90
56076;DHT22;41951;49.022;12.066;2023-11-21T09:13:18;8.40;99.90
56076;DHT22;41951;49.022;12.066;2023-11-21T09:15:43;8.50;99.90
56076;DHT22;41951;49.022;12.066;2023-11-21T09:18:13;8.50;99.90
56076;DHT22;41951;49.022;12.066;2023-11-21T09:20:38;8.50;99.90
56076;DHT22;41951;49.022;12.066;2023-11-21T09:23:04;8.50;99.90
56076;DHT22;41951;49.022;12.066;2023-11-21T09:25:29;8.50;99.90
56076;DHT22;41951;49.022;12.066;2023-11-21T09:27:55;8.60;99.90
56076;DHT22;41951;49.022;12.066;2023-11-21T09:30:22;8.60;99.90
56076;DHT22;41951;49.022;12.066;2023-11-21T09:32:50;8.60;99.90
56076;DHT22;41951;49.022;12.066;2023-11-21T09:35:17;8.60;99.90
56076;DHT22;41951;49.022;12.066;2023-11-21T09:37:45;8.70;99.90
56076;DHT22;41951;49.022;12.066;2023-11-21T09:40:11;8.70;99.90
56076;DHT22;41951;49.022;12.066;2023-11-21T09:42:56;8.70;99.90
56076;DHT22;41951;49.022;12.066;2023-11-21T09:45:31;8.70;99.90
56076;DHT22;41951;49.022;12.066;2023-11-21T09:48:02;8.80;99.90
56076;DHT22;41951;49.022;12.066;2023-11-21T09:50:28;8.80;99.90
56076;DHT22;41951;49.022;12.066;2023-11-21T09:55:47;8.80;99.90
56076;DHT22;41951;49.022;12.066;2023-11-21T09:58:14;8.90;99.90
56076;DHT22;41951;49.022;12.066;2023-11-21T10:00:41;8.80;99.90
56076;DHT22;41951;49.022;12.066;2023-11-21T10:03:08;8.90;99.90
56076;DHT22;41951;49.022;12.066;2023-11-21T10:05:35;8.90;99.90
56076;DHT22;41951;49.022;12.066;2023-11-21T10:08:00;9.00;99.90
56076;DHT22;41951;49.022;12.066;2023-11-21T10:10:27;9.00;99.90
56076;DHT22;41951;49.022;12.066;2023-11-21T10:13:02;9.00;99.90
56076;DHT22;41951;49.022;12.066;2023-11-21T10:15:29;9.00;99.90
56076;DHT22;41951;49.022;12.066;2023-11-21T10:17:56;9.00;99.90
56076;DHT22;41951;49.022;12.066;2023-11-21T10:20:23;9.00;99.90
56076;DHT22;41951;49.022;12.066;2023-11-21T10:22:50;9.00;99.90
56076;DHT22;41951;49.022;12.066;2023-11-21T10:25:15;9.00;99.90
56076;DHT22;41951;49.022;12.066;2023-11-21T10:27:43;9.00;99.90
56076;DHT22;41951;49.022;12.066;2023-11-21T10:30:11;9.00;99.90
56076;DHT22;41951;49.022;12.066;2023-11-21T10:32:38;9.10;99.90
56076;DHT22;41951;49.022;12.066;2023-11-21T10:35:06;9.10;99.90
56076;DHT22;41951;49.022;12.066;2023-11-21T10:37:39;9.20;99.90
56076;DHT22;41951;49.022;12.066;2023-11-21T10:40:09;9.20;99.90
56076;DHT22;41951;49.022;12.066;2023-11-21T10:42:37;9.30;99.90
56076;DHT22;41951;49.022;12.066;2023-11-21T10:45:07;9.30;99.90
56076;DHT22;41951;49.022;12.066;2023-11-21T10:47:43;9.40;99.90
56076;DHT22;41951;49.022;12.066;2023-11-21T10:50:10;9.40;99.90
56076;DHT22;41951;49.022;12.066;2023-11-21T10:52:45;9.40;99.90
56076;DHT22;41951;49.022;12.066;2023-11-21T10:55:21;9.50;99.90
56076;DHT22;41951;49.022;12.066;2023-11-21T10:57:52;9.50;99.90
56076;DHT22;41951;49.022;12.066;2023-11-21T11:00:22;9.50;99.90
56076;DHT22;41951;49.022;12.066;2023-11-21T11:02:52;9.50;99.90
56076;DHT22;41951;49.022;12.066;2023-11-21T11:05:23;9.40;99.90
56076;DHT22;41951;49.022;12.066;2023-11-21T11:08:12;9.40;99.90
56076;DHT22;41951;49.022;12.066;2023-11-21T11:10:38;9.30;99.90
56076;DHT22;41951;49.022;12.066;2023-11-21T11:13:04;9.30;99.90
56076;DHT22;41951;49.022;12.066;2023-11-21T11:15:32;9.20;99.90
56076;DHT22;41951;49.022;12.066;2023-11-21T11:17:59;9.20;99.90
56076;DHT22;41951;49.022;12.066;2023-11-21T11:20:33;9.20;99.90
56076;DHT22;41951;49.022;12.066;2023-11-21T11:28:15;9.10;99.90
56076;DHT22;41951;49.022;12.066;2023-11-21T11:33:30;9.10;99.90
56076;DHT22;41951;49.022;12.066;2023-11-21T11:36:08;9.10;99.90
56076;DHT22;41951;49.022;12.066;2023-11-21T11:38:36;9.20;99.90
56076;DHT22;41951;49.022;12.066;2023-11-21T11:41:03;9.20;99.90
56076;DHT22;41951;49.022;12.066;2023-11-21T11:43:30;9.20;99.90
56076;DHT22;41951;49.022;12.066;2023-11-21T11:45:59;9.20;99.90
56076;DHT22;41951;49.022;12.066;2023-11-21T11:48:25;9.20;99.90
56076;DHT22;41951;49.022;12.066;2023-11-21T11:51:12;9.20;99.90
56076;DHT22;41951;49.022;12.066;2023-11-21T11:53:47;9.30;99.90
56076;DHT22;41951;49.022;12.066;2023-11-21T11:56:26;9.20;99.90
56076;DHT22;41951;49.022;12.066;2023-11-21T11:58:56;9.20;99.90
56076;DHT22;41951;49.022;12.066;2023-11-21T12:01:24;9.10;99.90
56076;DHT22;41951;49.022;12.066;2023-11-21T12:06:45;9.10;99.90
56076;DHT22;41951;49.022;12.066;2023-11-21T12:09:22;9.10;99.90
56076;DHT22;41951;49.022;12.066;2023-11-21T12:11:51;9.10;99.90
56076;DHT22;41951;49.022;12.066;2023-11-21T12:14:17;9.10;99.90
56076;DHT22;41951;49.022;12.066;2023-11-21T12:16:43;9.20;99.90
56076;DHT22;41951;49.022;12.066;2023-11-21T12:19:12;9.20;99.90
56076;DHT22;41951;49.022;12.066;2023-11-21T12:21:38;9.20;99.90
56076;DHT22;41951;49.022;12.066;2023-11-21T12:24:06;9.20;99.90
56076;DHT22;41951;49.022;12.066;2023-11-21T12:26:36;9.30;99.90
56076;DHT22;41951;49.022;12.066;2023-11-21T12:29:02;9.30;99.90
56076;DHT22;41951;49.022;12.066;2023-11-21T12:31:30;9.30;99.90
56076;DHT22;41951;49.022;12.066;2023-11-21T12:33:56;9.40;99.90
56076;DHT22;41951;49.022;12.066;2023-11-21T12:36:23;9.30;99.90
56076;DHT22;41951;49.022;12.066;2023-11-21T12:38:48;9.30;99.90
56076;DHT22;41951;49.022;12.066;2023-11-21T12:41:15;9.30;99.90
56076;DHT22;41951;49.022;12.066;2023-11-21T12:43:42;9.30;99.90
56076;DHT22;41951;49.022;12.066;2023-11-21T12:46:12;9.30;99.90
56076;DHT22;41951;49.022;12.066;2023-11-21T12:48:39;9.30;99.90
56076;DHT22;41951;49.022;12.066;2023-11-21T12:51:10;9.30;99.90
56076;DHT22;41951;49.022;12.066;2023-11-21T12:53:37;9.20;99.90
56076;DHT22;41951;49.022;12.066;2023-11-21T12:56:13;9.20;99.90
56076;DHT22;41951;49.022;12.066;2023-11-21T12:58:44;9.20;99.90
56076;DHT22;41951;49.022;12.066;2023-11-21T13:01:13;9.20;99.90
56076;DHT22;41951;49.022;12.066;2023-11-21T13:03:43;9.20;99.90
56076;DHT22;41951;49.022;12.066;2023-11-21T13:06:10;9.20;99.90
56076;DHT22;41951;49.022;12.066;2023-11-21T13:08:38;9.20;99.90
56076;DHT22;41951;49.022;12.066;2023-11-21T13:11:05;9.20;99.90
56076;DHT22;41951;49.022;12.066;2023-11-21T13:13:31;9.20;99.90
56076;DHT22;41951;49.022;12.066;2023-11-21T13:16:01;9.20;99.90
56076;DHT22;41951;49.022;12.066;2023-11-21T13:18:28;9.20;99.90
56076;DHT22;41951;49.022;12.066;2023-11-21T13:20:58;9.20;99.90
56076;DHT22;41951;49.022;12.066;2023-11-21T13:23:24;9.20;99.90
56076;DHT22;41951;49.022;12.066;2023-11-21T13:25:51;9.20;99.90
56076;DHT22;41951;49.022;12.066;2023-11-21T13:28:16;9.20;99.90
56076;DHT22;41951;49.022;12.066;2023-11-21T13:30:44;9.20;99.90
56076;DHT22;41951;49.022;12.066;2023-11-21T13:33:10;9.20;99.90
56076;DHT22;41951;49.022;12.066;2023-11-21T13:35:43;9.20;99.90
56076;DHT22;41951;49.022;12.066;2023-11-21T13:38:14;9.20;99.90
56076;DHT22;41951;49.022;12.066;2023-11-21T13:40:47;9.20;99.90
56076;DHT22;41951;49.022;12.066;2023-11-21T13:43:17;9.20;99.90
56076;DHT22;41951;49.022;12.066;2023-11-21T13:45:48;9.20;99.90
56076;DHT22;41951;49.022;12.066;2023-11-21T13:48:23;9.20;99.90
56076;DHT22;41951;49.022;12.066;2023-11-21T13:50:57;9.20;99.90
56076;DHT22;41951;49.022;12.066;2023-11-21T13:53:26;9.20;99.90
56076;DHT22;41951;49.022;12.066;2023-11-21T13:55:53;9.20;99.90
56076;DHT22;41951;49.022;12.066;2023-11-21T13:58:25;9.30;99.90
56076;DHT22;41951;49.022;12.066;2023-11-21T14:01:18;9.20;99.90
56076;DHT22;41951;49.022;12.066;2023-11-21T14:04:00;9.30;99.90
56076;DHT22;41951;49.022;12.066;2023-11-21T14:06:49;9.30;99.90
56076;DHT22;41951;49.022;12.066;2023-11-21T14:09:21;9.30;99.90
56076;DHT22;41951;49.022;12.066;2023-11-21T14:11:54;9.00;99.90
56076;DHT22;41951;49.022;12.066;2023-11-21T14:14:23;9.30;99.90
56076;DHT22;41951;49.022;12.066;2023-11-21T14:16:51;9.30;99.90
56076;DHT22;41951;49.022;12.066;2023-11-21T14:19:17;9.20;99.90
56076;DHT22;41951;49.022;12.066;2023-11-21T14:21:47;9.20;99.90
56076;DHT22;41951;49.022;12.066;2023-11-21T14:24:14;9.20;99.90
56076;DHT22;41951;49.022;12.066;2023-11-21T14:26:43;9.30;99.90
56076;DHT22;41951;49.022;12.066;2023-11-21T14:29:12;9.20;99.90
56076;DHT22;41951;49.022;12.066;2023-11-21T14:31:40;9.20;99.90
56076;DHT22;41951;49.022;12.066;2023-11-21T14:34:06;9.20;99.90
56076;DHT22;41951;49.022;12.066;2023-11-21T14:36:33;9.20;99.90
56076;DHT22;41951;49.022;12.066;2023-11-21T14:38:59;9.10;99.90
56076;DHT22;41951;49.022;12.066;2023-11-21T14:41:24;9.10;99.90
56076;DHT22;41951;49.022;12.066;2023-11-21T14:43:51;9.00;99.90
56076;DHT22;41951;49.022;12.066;2023-11-21T14:46:16;9.10;99.90
56076;DHT22;41951;49.022;12.066;2023-11-21T14:48:45;9.10;99.90
56076;DHT22;41951;49.022;12.066;2023-11-21T14:51:27;9.00;99.90
56076;DHT22;41951;49.022;12.066;2023-11-21T14:53:59;9.00;99.90
56076;DHT22;41951;49.022;12.066;2023-11-21T14:56:32;9.00;99.90
56076;DHT22;41951;49.022;12.066;2023-11-21T14:58:59;9.00;99.90
56076;DHT22;41951;49.022;12.066;2023-11-21T15:01:42;9.00;99.90
56076;DHT22;41951;49.022;12.066;2023-11-21T15:04:20;9.00;99.90
56076;DHT22;41951;49.022;12.066;2023-11-21T15:07:03;9.00;99.90
56076;DHT22;41951;49.022;12.066;2023-11-21T15:09:29;9.00;99.90
56076;DHT22;41951;49.022;12.066;2023-11-21T15:11:58;9.00;99.90
56076;DHT22;41951;49.022;12.066;2023-11-21T15:14:34;9.00;99.90
56076;DHT22;41951;49.022;12.066;2023-11-21T15:17:02;9.00;99.90
56076;DHT22;41951;49.022;12.066;2023-11-21T15:19:28;9.00;99.90
56076;DHT22;41951;49.022;12.066;2023-11-21T15:21:57;9.00;99.90
56076;DHT22;41951;49.022;12.066;2023-11-21T15:24:23;8.90;99.90
56076;DHT22;41951;49.022;12.066;2023-11-21T15:26:50;8.90;99.90
56076;DHT22;41951;49.022;12.066;2023-11-21T15:29:16;9.00;99.90
56076;DHT22;41951;49.022;12.066;2023-11-21T15:31:42;9.00;99.90
56076;DHT22;41951;49.022;12.066;2023-11-21T15:34:16;9.00;99.90
56076;DHT22;41951;49.022;12.066;2023-11-21T15:36:42;8.90;99.90
56076;DHT22;41951;49.022;12.066;2023-11-21T15:39:08;8.90;99.90
56076;DHT22;41951;49.022;12.066;2023-11-21T15:41:38;9.00;99.90
56076;DHT22;41951;49.022;12.066;2023-11-21T15:44:07;8.90;99.90
56076;DHT22;41951;49.022;12.066;2023-11-21T15:46:36;8.90;99.90
56076;DHT22;41951;49.022;12.066;2023-11-21T15:49:04;8.90;99.90